ICHLY LIBD-EDLW
Flight info
| Callsign | ICHLY |
|---|---|
| Flight time | N/A |
| Altitude | 40000 |
| Route | DIVKU DCT ARSOB DCT IBENI DCT ROTAR DCT BAKOR DCT BRENO M726 ERNAS Y101 TEKTU Z850 ADEMI ADEMI2A |
| Aircraft | CL60/M-SBDE1E2E3FGHIJ1J4J5J7M3RWXYZ/LB1V1D1 |
Departure
| Time | 2026-04-30 19:16 |
|---|---|
| Airport | Bari Karol Wojtyła International Airport (LIBD) |
Arrival
| Time | N/A |
|---|---|
| Airport | Dortmund Airport (EDLW) |
| Time | Latitude | Longitude | Altitude | Speed | Heading |
|---|---|---|---|---|---|
| 2026-04-30 18:36 | 41.13567 | 16.75991 | 153 ft | 0 kts | 24° |
| 2026-04-30 19:11 | 41.13571 | 16.75994 | 153 ft | 2 kts | 35° |
| 2026-04-30 19:11 | 41.13578 | 16.76050 | 152 ft | 8 kts | 73° |
| 2026-04-30 19:12 | 41.13613 | 16.76051 | 152 ft | 6 kts | 327° |
| 2026-04-30 19:12 | 41.13641 | 16.75991 | 152 ft | 9 kts | 265° |
| 2026-04-30 19:12 | 41.13620 | 16.75901 | 154 ft | 11 kts | 255° |
| 2026-04-30 19:13 | 41.13561 | 16.75689 | 158 ft | 13 kts | 248° |
| 2026-04-30 19:13 | 41.13489 | 16.75436 | 164 ft | 15 kts | 249° |
| 2026-04-30 19:13 | 41.13451 | 16.75302 | 168 ft | 15 kts | 250° |
| 2026-04-30 19:14 | 41.13412 | 16.75164 | 172 ft | 16 kts | 249° |
| 2026-04-30 19:14 | 41.13372 | 16.75023 | 176 ft | 16 kts | 249° |
| 2026-04-30 19:14 | 41.13347 | 16.74934 | 179 ft | 8 kts | 253° |
| 2026-04-30 19:14 | 41.13357 | 16.74855 | 181 ft | 9 kts | 300° |
| 2026-04-30 19:15 | 41.13392 | 16.74774 | 183 ft | 10 kts | 300° |
| 2026-04-30 19:15 | 41.13484 | 16.74762 | 182 ft | 0 kts | 68° |
| 2026-04-30 19:15 | 41.13498 | 16.74808 | 181 ft | 29 kts | 70° |
| 2026-04-30 19:16 | 41.13691 | 16.75483 | 162 ft | 127 kts | 70° |
| 2026-04-30 19:16 | 41.14069 | 16.76790 | 585 ft | 167 kts | 67° |
| 2026-04-30 19:16 | 41.14937 | 16.79795 | 2232 ft | 190 kts | 64° |
| 2026-04-30 19:17 | 41.15434 | 16.81502 | 3231 ft | 213 kts | 65° |
| 2026-04-30 19:17 | 41.16429 | 16.85146 | 5992 ft | 220 kts | 65° |
| 2026-04-30 19:17 | 41.16945 | 16.87008 | 7314 ft | 225 kts | 65° |
| 2026-04-30 19:18 | 41.17895 | 16.90293 | 8966 ft | 251 kts | 58° |
| 2026-04-30 19:18 | 41.19658 | 16.92379 | 10138 ft | 268 kts | 16° |
| 2026-04-30 19:18 | 41.21528 | 16.92559 | 10862 ft | 281 kts | 349° |
| 2026-04-30 19:19 | 41.23415 | 16.91900 | 11120 ft | 280 kts | 343° |
| 2026-04-30 19:19 | 41.25264 | 16.91194 | 11162 ft | 277 kts | 343° |
| 2026-04-30 19:19 | 41.27140 | 16.90485 | 11162 ft | 276 kts | 344° |
| 2026-04-30 19:20 | 41.32565 | 16.88451 | 11156 ft | 275 kts | 344° |
| 2026-04-30 19:20 | 41.35827 | 16.85671 | 11808 ft | 302 kts | 306° |
| 2026-04-30 19:21 | 41.36620 | 16.83223 | 13341 ft | 297 kts | 285° |
| 2026-04-30 19:21 | 41.36243 | 16.77883 | 15897 ft | 299 kts | 262° |
| 2026-04-30 19:22 | 41.36632 | 16.72567 | 17999 ft | 295 kts | 285° |
| 2026-04-30 19:22 | 41.37926 | 16.64563 | 20850 ft | 303 kts | 284° |
| 2026-04-30 19:23 | 41.39206 | 16.56273 | 23465 ft | 310 kts | 283° |
| 2026-04-30 19:24 | 41.40062 | 16.50665 | 25100 ft | 313 kts | 283° |
| 2026-04-30 19:24 | 41.40494 | 16.47826 | 25906 ft | 313 kts | 283° |
| 2026-04-30 19:24 | 41.41347 | 16.42181 | 27385 ft | 314 kts | 284° |
| 2026-04-30 19:25 | 41.42629 | 16.33655 | 29317 ft | 316 kts | 283° |
| 2026-04-30 19:26 | 41.43483 | 16.27933 | 30468 ft | 319 kts | 283° |
| 2026-04-30 19:26 | 41.44351 | 16.22097 | 31367 ft | 325 kts | 283° |
| 2026-04-30 19:26 | 41.44786 | 16.19166 | 31748 ft | 329 kts | 283° |
| 2026-04-30 19:27 | 41.45675 | 16.13147 | 32498 ft | 335 kts | 283° |
| 2026-04-30 19:27 | 41.46578 | 16.07012 | 33187 ft | 341 kts | 283° |
| 2026-04-30 19:28 | 41.47033 | 16.03904 | 33549 ft | 343 kts | 283° |
| 2026-04-30 19:28 | 41.47953 | 15.97609 | 34140 ft | 348 kts | 283° |
| 2026-04-30 19:29 | 41.48935 | 15.91330 | 34791 ft | 348 kts | 288° |
| 2026-04-30 19:29 | 41.49765 | 15.88330 | 35103 ft | 348 kts | 295° |
| 2026-04-30 19:30 | 41.54214 | 15.80717 | 35869 ft | 356 kts | 318° |
| 2026-04-30 19:30 | 41.58467 | 15.77141 | 36351 ft | 364 kts | 325° |
| 2026-04-30 19:31 | 41.62833 | 15.73716 | 36903 ft | 365 kts | 325° |
| 2026-04-30 19:31 | 41.65017 | 15.72001 | 37168 ft | 366 kts | 325° |
| 2026-04-30 19:31 | 41.69374 | 15.68575 | 37664 ft | 367 kts | 325° |
| 2026-04-30 19:32 | 41.71575 | 15.66841 | 37880 ft | 368 kts | 325° |
| 2026-04-30 19:32 | 41.73798 | 15.65089 | 38083 ft | 369 kts | 326° |
| 2026-04-30 19:32 | 41.76011 | 15.63345 | 38300 ft | 369 kts | 326° |
| 2026-04-30 19:32 | 41.78217 | 15.61604 | 38518 ft | 370 kts | 326° |
| 2026-04-30 19:33 | 41.80415 | 15.59868 | 38732 ft | 370 kts | 326° |
| 2026-04-30 19:33 | 41.82650 | 15.58101 | 38883 ft | 371 kts | 326° |
| 2026-04-30 19:33 | 41.84866 | 15.56348 | 39064 ft | 371 kts | 326° |
| 2026-04-30 19:33 | 41.87085 | 15.54590 | 39227 ft | 372 kts | 326° |
| 2026-04-30 19:34 | 41.89297 | 15.52837 | 39386 ft | 373 kts | 326° |
| 2026-04-30 19:34 | 41.91473 | 15.51112 | 39561 ft | 373 kts | 326° |
| 2026-04-30 19:34 | 41.95908 | 15.47591 | 39908 ft | 372 kts | 326° |
| 2026-04-30 19:35 | 41.98151 | 15.45808 | 40082 ft | 372 kts | 326° |
| 2026-04-30 19:35 | 42.00351 | 15.44058 | 40197 ft | 373 kts | 326° |
| 2026-04-30 19:35 | 42.02581 | 15.42281 | 40201 ft | 376 kts | 326° |
| 2026-04-30 19:36 | 42.07143 | 15.38642 | 40210 ft | 384 kts | 327° |
| 2026-04-30 19:36 | 42.14086 | 15.33093 | 40202 ft | 395 kts | 326° |
| 2026-04-30 19:37 | 42.18870 | 15.29263 | 40206 ft | 402 kts | 326° |
| 2026-04-30 19:37 | 42.23691 | 15.25396 | 40207 ft | 408 kts | 326° |
| 2026-04-30 19:38 | 42.28585 | 15.21463 | 40208 ft | 413 kts | 327° |
| 2026-04-30 19:38 | 42.33534 | 15.17480 | 40212 ft | 417 kts | 326° |
| 2026-04-30 19:39 | 42.38522 | 15.13458 | 40211 ft | 420 kts | 327° |
| 2026-04-30 19:39 | 42.43519 | 15.09421 | 40213 ft | 420 kts | 327° |
| 2026-04-30 19:40 | 42.48543 | 15.05354 | 40204 ft | 420 kts | 327° |
| 2026-04-30 19:40 | 42.53551 | 15.01322 | 40210 ft | 420 kts | 328° |
| 2026-04-30 19:41 | 42.58654 | 14.97494 | 40212 ft | 422 kts | 328° |
| 2026-04-30 19:41 | 42.63812 | 14.93625 | 40209 ft | 425 kts | 329° |
| 2026-04-30 19:42 | 42.68986 | 14.89735 | 40216 ft | 427 kts | 329° |
| 2026-04-30 19:42 | 42.74171 | 14.85829 | 40214 ft | 430 kts | 329° |
| 2026-04-30 19:43 | 42.79423 | 14.81863 | 40230 ft | 433 kts | 329° |
| 2026-04-30 19:44 | 42.87328 | 14.75879 | 40222 ft | 437 kts | 329° |
| 2026-04-30 19:44 | 42.92637 | 14.71850 | 40222 ft | 441 kts | 329° |
| 2026-04-30 19:45 | 42.98012 | 14.67762 | 40225 ft | 443 kts | 329° |
| 2026-04-30 19:45 | 43.03381 | 14.63670 | 40221 ft | 445 kts | 329° |
| 2026-04-30 19:46 | 43.08772 | 14.59553 | 40235 ft | 446 kts | 329° |
| 2026-04-30 19:46 | 43.14189 | 14.55409 | 40237 ft | 446 kts | 329° |
| 2026-04-30 19:47 | 43.19589 | 14.51268 | 40248 ft | 447 kts | 329° |
| 2026-04-30 19:47 | 43.25021 | 14.47094 | 40228 ft | 448 kts | 329° |
| 2026-04-30 19:48 | 43.30406 | 14.42948 | 40247 ft | 448 kts | 330° |
| 2026-04-30 19:48 | 43.35828 | 14.38764 | 40250 ft | 447 kts | 330° |
| 2026-04-30 19:49 | 43.41249 | 14.34572 | 40247 ft | 448 kts | 329° |
| 2026-04-30 19:49 | 43.49376 | 14.28273 | 40250 ft | 448 kts | 329° |
| 2026-04-30 19:50 | 43.54806 | 14.24052 | 40257 ft | 448 kts | 329° |
| 2026-04-30 19:50 | 43.60195 | 14.19854 | 40255 ft | 448 kts | 329° |
| 2026-04-30 19:51 | 43.65604 | 14.15633 | 40254 ft | 448 kts | 329° |
| 2026-04-30 19:51 | 43.71040 | 14.11382 | 40251 ft | 448 kts | 330° |
| 2026-04-30 19:52 | 43.76461 | 14.07132 | 40249 ft | 449 kts | 330° |
| 2026-04-30 19:52 | 43.81850 | 14.02900 | 40263 ft | 449 kts | 330° |
| 2026-04-30 19:53 | 43.87260 | 13.98643 | 40251 ft | 448 kts | 330° |
| 2026-04-30 19:53 | 43.92654 | 13.94389 | 40260 ft | 448 kts | 330° |
| 2026-04-30 19:54 | 43.98060 | 13.90115 | 40279 ft | 448 kts | 330° |
| 2026-04-30 19:54 | 44.03451 | 13.85846 | 40264 ft | 449 kts | 330° |
| 2026-04-30 19:55 | 44.08887 | 13.81531 | 40264 ft | 449 kts | 330° |
| 2026-04-30 19:55 | 44.14325 | 13.77205 | 40268 ft | 450 kts | 330° |
| 2026-04-30 19:56 | 44.19738 | 13.72891 | 40273 ft | 450 kts | 330° |
| 2026-04-30 19:56 | 44.25171 | 13.68550 | 40279 ft | 450 kts | 330° |
| 2026-04-30 19:57 | 44.30601 | 13.64203 | 40274 ft | 450 kts | 330° |
| 2026-04-30 19:57 | 44.35977 | 13.59890 | 40291 ft | 450 kts | 330° |
| 2026-04-30 19:58 | 44.41404 | 13.55526 | 40286 ft | 450 kts | 330° |
| 2026-04-30 19:58 | 44.46798 | 13.51180 | 40290 ft | 450 kts | 330° |
| 2026-04-30 19:59 | 44.52235 | 13.46790 | 40300 ft | 450 kts | 330° |
| 2026-04-30 20:00 | 44.60322 | 13.40243 | 40294 ft | 451 kts | 330° |
| 2026-04-30 20:00 | 44.65752 | 13.35834 | 40295 ft | 450 kts | 330° |
| 2026-04-30 20:01 | 44.73874 | 13.29222 | 40299 ft | 450 kts | 330° |
| 2026-04-30 20:01 | 44.79271 | 13.24817 | 40294 ft | 451 kts | 330° |
| 2026-04-30 20:02 | 44.87390 | 13.18172 | 40298 ft | 451 kts | 330° |
| 2026-04-30 20:03 | 44.95493 | 13.11518 | 40298 ft | 451 kts | 330° |
| 2026-04-30 20:03 | 45.00883 | 13.07079 | 40306 ft | 451 kts | 330° |
| 2026-04-30 20:04 | 45.06285 | 13.02621 | 40305 ft | 451 kts | 330° |
| 2026-04-30 20:05 | 45.14441 | 12.95871 | 40303 ft | 452 kts | 330° |
| 2026-04-30 20:05 | 45.22570 | 12.89122 | 40297 ft | 453 kts | 330° |
| 2026-04-30 20:06 | 45.27959 | 12.84635 | 40300 ft | 453 kts | 330° |
| 2026-04-30 20:06 | 45.33391 | 12.80102 | 40312 ft | 453 kts | 330° |
| 2026-04-30 20:07 | 45.38787 | 12.75589 | 40308 ft | 453 kts | 330° |
| 2026-04-30 20:08 | 45.46916 | 12.68771 | 40308 ft | 453 kts | 330° |
| 2026-04-30 20:08 | 45.52366 | 12.64187 | 40303 ft | 454 kts | 330° |
| 2026-04-30 20:09 | 45.57820 | 12.59590 | 40315 ft | 455 kts | 330° |
| 2026-04-30 20:09 | 45.65964 | 12.52705 | 40317 ft | 455 kts | 330° |
| 2026-04-30 20:10 | 45.74141 | 12.45769 | 40314 ft | 455 kts | 330° |
| 2026-04-30 20:11 | 45.82322 | 12.38806 | 40315 ft | 456 kts | 330° |
| 2026-04-30 20:11 | 45.87768 | 12.34158 | 40318 ft | 457 kts | 330° |
| 2026-04-30 20:12 | 45.95939 | 12.27163 | 40323 ft | 458 kts | 330° |
| 2026-04-30 20:13 | 46.01446 | 12.22435 | 40316 ft | 458 kts | 330° |
| 2026-04-30 20:13 | 46.06889 | 12.17751 | 40318 ft | 458 kts | 330° |
| 2026-04-30 20:14 | 46.12365 | 12.13027 | 40308 ft | 459 kts | 330° |
| 2026-04-30 20:14 | 46.17843 | 12.08292 | 40303 ft | 459 kts | 330° |
| 2026-04-30 20:15 | 46.23345 | 12.03524 | 40296 ft | 460 kts | 330° |
| 2026-04-30 20:15 | 46.28831 | 11.98759 | 40295 ft | 460 kts | 330° |
| 2026-04-30 20:16 | 46.34314 | 11.93985 | 40284 ft | 461 kts | 331° |
| 2026-04-30 20:16 | 46.39798 | 11.89199 | 40265 ft | 460 kts | 331° |
| 2026-04-30 20:17 | 46.45236 | 11.84441 | 40275 ft | 459 kts | 331° |
| 2026-04-30 20:17 | 46.50704 | 11.79647 | 40270 ft | 460 kts | 331° |
| 2026-04-30 20:18 | 46.56184 | 11.74830 | 40281 ft | 459 kts | 331° |
| 2026-04-30 20:18 | 46.61435 | 11.70203 | 40309 ft | 460 kts | 331° |